Time,TemperatureF,DewpointF,PressureIn,WindDirection,WindDirectionDegrees,WindSpeedMPH,WindSpeedGustMPH,Humidity,HourlyPrecipIn,Conditions,Clouds,dailyrainin,SoftwareType,DateUTC
2013-05-14 00:00:00,49.7,36.8,30.20,WSW,248,0.0,0.0,61,0.00,,,0.00,WUHU216HW,2013-05-14 04:00:00,
2013-05-14 00:01:00,49.7,36.8,30.20,WSW,248,0.0,0.0,61,0.00,,,0.00,WUHU216HW,2013-05-14 04:01:00,
2013-05-14 00:06:00,49.7,36.8,30.20,WSW,248,0.0,0.0,61,0.00,,,0.00,WUHU216HW,2013-05-14 04:06:00,
2013-05-14 00:29:00,49.3,36.1,30.20,WSW,248,0.4,0.4,60,0.00,,,0.00,WUHU216HW,2013-05-14 04:29:00,
2013-05-14 00:30:00,49.3,36.1,30.20,WSW,248,0.4,0.4,60,0.00,,,0.00,WUHU216HW,2013-05-14 04:30:00,
2013-05-14 00:35:00,49.3,36.1,30.20,WSW,248,0.4,0.4,60,0.00,,,0.00,WUHU216HW,2013-05-14 04:35:00,
2013-05-14 01:00:00,50.0,34.9,30.21,WSW,248,0.8,0.8,56,0.00,,,0.00,WUHU216HW,2013-05-14 05:00:00,
2013-05-14 01:05:00,50.0,34.9,30.21,WSW,248,0.8,0.8,56,0.00,,,0.00,WUHU216HW,2013-05-14 05:05:00,
2013-05-14 01:29:00,50.2,34.7,30.21,WSW,248,0.0,0.0,55,0.00,,,0.00,WUHU216HW,2013-05-14 05:29:00,
2013-05-14 01:30:00,50.2,34.7,30.21,WSW,248,0.0,0.0,55,0.00,,,0.00,WUHU216HW,2013-05-14 05:30:00,
2013-05-14 01:35:00,50.2,34.7,30.21,WSW,248,0.0,0.0,55,0.00,,,0.00,WUHU216HW,2013-05-14 05:35:00,
2013-05-14 02:00:00,49.1,34.1,30.21,WSW,248,0.0,0.0,56,0.00,,,0.00,WUHU216HW,2013-05-14 06:00:00,
2013-05-14 02:05:00,49.1,34.1,30.21,WSW,248,0.0,0.0,56,0.00,,,0.00,WUHU216HW,2013-05-14 06:05:00,
2013-05-14 02:30:00,47.9,33.4,30.20,WSW,248,0.0,0.0,57,0.00,,,0.00,WUHU216HW,2013-05-14 06:30:00,
2013-05-14 02:35:00,47.9,33.4,30.20,WSW,248,0.0,0.0,57,0.00,,,0.00,WUHU216HW,2013-05-14 06:35:00,
2013-05-14 03:00:00,45.5,33.7,30.20,WSW,248,0.0,0.0,63,0.00,,,0.00,WUHU216HW,2013-05-14 07:00:00,
2013-05-14 03:05:00,45.5,33.7,30.20,WSW,248,0.0,0.0,63,0.00,,,0.00,WUHU216HW,2013-05-14 07:05:00,
2013-05-14 03:30:00,44.6,33.9,30.21,WSW,248,0.0,0.0,66,0.00,,,0.00,WUHU216HW,2013-05-14 07:30:00,
2013-05-14 03:35:00,44.6,33.9,30.21,WSW,248,0.0,0.0,66,0.00,,,0.00,WUHU216HW,2013-05-14 07:35:00,
2013-05-14 04:00:00,43.4,33.1,30.21,WSW,248,0.0,0.0,67,0.00,,,0.00,WUHU216HW,2013-05-14 08:00:00,
2013-05-14 04:05:00,43.4,33.1,30.21,WSW,248,0.0,0.0,67,0.00,,,0.00,WUHU216HW,2013-05-14 08:05:00,
2013-05-14 04:30:00,42.8,33.0,30.22,WSW,248,0.0,0.0,68,0.00,,,0.00,WUHU216HW,2013-05-14 08:30:00,
2013-05-14 04:35:00,42.8,33.0,30.22,WSW,248,0.0,0.0,68,0.00,,,0.00,WUHU216HW,2013-05-14 08:35:00,
2013-05-14 05:00:00,42.1,32.8,30.22,WSW,248,0.0,0.0,69,0.00,,,0.00,WUHU216HW,2013-05-14 09:00:00,
2013-05-14 05:05:00,42.1,32.8,30.22,WSW,248,0.0,0.0,69,0.00,,,0.00,WUHU216HW,2013-05-14 09:05:00,
2013-05-14 05:30:00,41.2,32.2,30.23,WSW,248,0.0,0.0,70,0.00,,,0.00,WUHU216HW,2013-05-14 09:30:00,
2013-05-14 05:35:00,41.2,32.2,30.23,WSW,248,0.0,0.0,70,0.00,,,0.00,WUHU216HW,2013-05-14 09:35:00,
2013-05-14 06:00:00,40.9,32.2,30.23,WSW,248,0.0,0.0,71,0.00,,,0.00,WUHU216HW,2013-05-14 10:00:00,
2013-05-14 06:05:00,40.9,32.2,30.23,WSW,248,0.0,0.0,71,0.00,,,0.00,WUHU216HW,2013-05-14 10:05:00,
2013-05-14 06:30:00,40.7,32.1,30.24,WSW,248,0.0,0.0,71,0.00,,,0.00,WUHU216HW,2013-05-14 10:30:00,
2013-05-14 06:35:00,40.7,32.1,30.24,WSW,248,0.0,0.0,71,0.00,,,0.00,WUHU216HW,2013-05-14 10:35:00,
2013-05-14 07:00:00,40.7,32.1,30.25,WSW,248,0.0,0.0,71,0.00,,,0.00,WUHU216HW,2013-05-14 11:00:00,
2013-05-14 07:05:00,40.7,32.1,30.25,WSW,248,0.0,0.0,71,0.00,,,0.00,WUHU216HW,2013-05-14 11:05:00,
2013-05-14 07:30:00,42.1,33.5,30.26,WSW,248,0.0,0.0,71,0.00,,,0.00,WUHU216HW,2013-05-14 11:30:00,
2013-05-14 07:35:00,42.1,33.5,30.26,WSW,248,0.0,0.0,71,0.00,,,0.00,WUHU216HW,2013-05-14 11:35:00,
2013-05-14 08:00:00,44.1,34.6,30.26,WSW,248,0.0,0.0,69,0.00,,,0.00,WUHU216HW,2013-05-14 12:00:00,
2013-05-14 08:05:00,44.1,34.6,30.26,WSW,248,0.0,0.0,69,0.00,,,0.00,WUHU216HW,2013-05-14 12:05:00,
2013-05-14 08:30:00,46.8,36.8,30.26,SW,225,0.0,0.0,68,0.00,,,0.00,WUHU216HW,2013-05-14 12:30:00,
2013-05-14 08:35:00,46.8,36.8,30.26,SW,225,0.0,0.0,68,0.00,,,0.00,WUHU216HW,2013-05-14 12:35:00,
2013-05-14 09:00:00,50.4,39.1,30.27,SSW,203,0.0,0.0,65,0.00,,,0.00,WUHU216HW,2013-05-14 13:00:00,
2013-05-14 09:05:00,50.4,39.1,30.27,SSW,203,0.0,0.0,65,0.00,,,0.00,WUHU216HW,2013-05-14 13:05:00,
2013-05-14 09:30:00,53.3,40.1,30.26,SSW,203,1.4,1.4,61,0.00,,,0.00,WUHU216HW,2013-05-14 13:30:00,
2013-05-14 09:35:00,53.3,40.1,30.26,SSW,203,1.4,1.4,61,0.00,,,0.00,WUHU216HW,2013-05-14 13:35:00,
2013-05-14 09:59:00,55.8,38.3,30.26,North,0,0.4,0.4,52,0.00,,,0.00,WUHU216HW,2013-05-14 13:59:00,
2013-05-14 10:00:00,55.8,38.3,30.26,North,0,0.4,0.4,52,0.00,,,0.00,WUHU216HW,2013-05-14 14:00:00,
2013-05-14 10:05:00,55.8,38.3,30.26,North,0,0.4,0.4,52,0.00,,,0.00,WUHU216HW,2013-05-14 14:05:00,
2013-05-14 10:30:00,58.1,39.7,30.27,ESE,113,3.6,3.6,50,0.00,,,0.00,WUHU216HW,2013-05-14 14:30:00,
2013-05-14 10:35:00,58.1,39.7,30.27,ESE,113,3.6,3.6,50,0.00,,,0.00,WUHU216HW,2013-05-14 14:35:00,
2013-05-14 10:59:00,59.4,35.6,30.28,West,270,0.0,0.0,41,0.00,,,0.00,WUHU216HW,2013-05-14 14:59:00,
2013-05-14 11:00:00,59.4,35.6,30.28,West,270,0.0,0.0,41,0.00,,,0.00,WUHU216HW,2013-05-14 15:00:00,
2013-05-14 11:05:00,59.4,35.6,30.28,West,270,0.0,0.0,41,0.00,,,0.00,WUHU216HW,2013-05-14 15:05:00,
2013-05-14 11:30:00,61.6,37.0,30.27,North,0,0.8,0.8,40,0.00,,,0.00,WUHU216HW,2013-05-14 15:30:00,
2013-05-14 11:35:00,61.6,37.0,30.27,North,0,0.8,0.8,40,0.00,,,0.00,WUHU216HW,2013-05-14 15:35:00,
2013-05-14 11:59:00,62.3,34.7,30.27,NNW,338,0.8,0.8,36,0.00,,,0.00,WUHU216HW,2013-05-14 15:59:00,
2013-05-14 12:00:00,62.3,34.7,30.27,NNW,338,0.8,0.8,36,0.00,,,0.00,WUHU216HW,2013-05-14 16:00:00,
2013-05-14 12:05:00,62.3,34.7,30.27,NNW,338,0.8,0.8,36,0.00,,,0.00,WUHU216HW,2013-05-14 16:05:00,
2013-05-14 12:29:00,64.4,37.4,30.25,WNW,293,2.2,2.2,37,0.00,,,0.00,WUHU216HW,2013-05-14 16:29:00,
2013-05-14 12:30:00,64.4,37.4,30.25,WNW,293,2.2,2.2,37,0.00,,,0.00,WUHU216HW,2013-05-14 16:30:00,
2013-05-14 12:35:00,64.4,37.4,30.25,WNW,293,2.2,2.2,37,0.00,,,0.00,WUHU216HW,2013-05-14 16:35:00,
2013-05-14 12:59:00,66.2,36.9,30.23,South,180,2.6,2.6,34,0.00,,,0.00,WUHU216HW,2013-05-14 16:59:00,
2013-05-14 13:00:00,66.2,36.9,30.23,South,180,2.6,2.6,34,0.00,,,0.00,WUHU216HW,2013-05-14 17:00:00,
2013-05-14 13:05:00,66.2,36.9,30.23,South,180,2.6,2.6,34,0.00,,,0.00,WUHU216HW,2013-05-14 17:05:00,
2013-05-14 13:29:00,67.0,36.8,30.20,NNE,23,2.2,2.2,33,0.00,,,0.00,WUHU216HW,2013-05-14 17:29:00,
2013-05-14 13:30:00,67.0,36.8,30.20,NNE,23,2.2,2.2,33,0.00,,,0.00,WUHU216HW,2013-05-14 17:30:00,
2013-05-14 13:35:00,67.0,36.8,30.20,NNE,23,2.2,2.2,33,0.00,,,0.00,WUHU216HW,2013-05-14 17:35:00,
2013-05-14 13:59:00,69.5,37.5,30.20,WNW,293,1.8,1.8,31,0.00,,,0.00,WUHU216HW,2013-05-14 17:59:00,
2013-05-14 14:00:00,69.5,37.5,30.20,WNW,293,1.8,1.8,31,0.00,,,0.00,WUHU216HW,2013-05-14 18:00:00,
2013-05-14 14:05:00,69.5,37.5,30.20,WNW,293,1.8,1.8,31,0.00,,,0.00,WUHU216HW,2013-05-14 18:05:00,
2013-05-14 14:29:00,69.8,38.5,30.20,WSW,248,3.6,3.6,32,0.00,,,0.00,WUHU216HW,2013-05-14 18:29:00,
2013-05-14 14:30:00,69.8,38.5,30.20,WSW,248,3.6,3.6,32,0.00,,,0.00,WUHU216HW,2013-05-14 18:30:00,
2013-05-14 14:35:00,69.8,38.5,30.20,WSW,248,3.6,3.6,32,0.00,,,0.00,WUHU216HW,2013-05-14 18:35:00,
2013-05-14 14:59:00,69.8,38.5,30.18,SW,225,0.8,0.8,32,0.00,,,0.00,WUHU216HW,2013-05-14 18:59:00,
2013-05-14 15:00:00,69.8,38.5,30.18,SW,225,0.8,0.8,32,0.00,,,0.00,WUHU216HW,2013-05-14 19:00:00,
2013-05-14 15:05:00,69.8,38.5,30.18,SW,225,0.8,0.8,32,0.00,,,0.00,WUHU216HW,2013-05-14 19:05:00,
2013-05-14 15:29:00,69.7,38.4,30.17,North,0,0.8,0.8,32,0.00,,,0.00,WUHU216HW,2013-05-14 19:29:00,
2013-05-14 15:30:00,69.7,38.4,30.17,North,0,0.8,0.8,32,0.00,,,0.00,WUHU216HW,2013-05-14 19:30:00,
2013-05-14 15:35:00,69.7,38.4,30.17,North,0,0.8,0.8,32,0.00,,,0.00,WUHU216HW,2013-05-14 19:35:00,
2013-05-14 16:00:00,69.8,37.8,30.16,SSW,203,0.8,0.8,31,0.00,,,0.00,WUHU216HW,2013-05-14 20:00:00,
2013-05-14 16:05:00,69.8,37.8,30.16,SSW,203,0.8,0.8,31,0.00,,,0.00,WUHU216HW,2013-05-14 20:05:00,
2013-05-14 16:30:00,70.2,39.6,30.15,NNW,338,1.4,1.4,33,0.00,,,0.00,WUHU216HW,2013-05-14 20:30:00,
2013-05-14 16:35:00,70.2,39.6,30.15,NNW,338,1.4,1.4,33,0.00,,,0.00,WUHU216HW,2013-05-14 20:35:00,
2013-05-14 17:00:00,70.6,39.3,30.13,SW,225,0.8,0.8,32,0.00,,,0.00,WUHU216HW,2013-05-14 21:00:00,
2013-05-14 17:05:00,70.6,39.3,30.13,SW,225,0.8,0.8,32,0.00,,,0.00,WUHU216HW,2013-05-14 21:05:00,
2013-05-14 17:30:00,70.2,39.6,30.14,NNW,338,1.8,1.8,33,0.00,,,0.00,WUHU216HW,2013-05-14 21:30:00,
2013-05-14 17:35:00,70.2,39.6,30.14,NNW,338,1.8,1.8,33,0.00,,,0.00,WUHU216HW,2013-05-14 21:35:00,
2013-05-14 18:00:00,70.0,41.0,30.13,SW,225,0.0,0.0,35,0.00,,,0.00,WUHU216HW,2013-05-14 22:00:00,
2013-05-14 18:05:00,70.0,41.0,30.13,SW,225,0.0,0.0,35,0.00,,,0.00,WUHU216HW,2013-05-14 22:05:00,
2013-05-14 18:30:00,69.7,39.9,30.12,WSW,248,1.4,1.4,34,0.00,,,0.00,WUHU216HW,2013-05-14 22:30:00,
2013-05-14 18:35:00,69.7,39.9,30.12,WSW,248,1.4,1.4,34,0.00,,,0.00,WUHU216HW,2013-05-14 22:35:00,
2013-05-14 19:00:00,69.1,40.2,30.12,SSW,203,0.0,0.0,35,0.00,,,0.00,WUHU216HW,2013-05-14 23:00:00,
2013-05-14 19:05:00,69.1,40.2,30.12,SSW,203,0.0,0.0,35,0.00,,,0.00,WUHU216HW,2013-05-14 23:05:00,
2013-05-14 19:30:00,68.0,40.6,30.11,SW,225,0.0,0.0,37,0.00,,,0.00,WUHU216HW,2013-05-14 23:30:00,
2013-05-14 19:35:00,68.0,40.6,30.11,SW,225,0.0,0.0,37,0.00,,,0.00,WUHU216HW,2013-05-14 23:35:00,
2013-05-14 20:00:00,66.8,40.2,30.12,SSE,158,0.0,0.0,38,0.00,,,0.00,WUHU216HW,2013-05-15 00:00:00,
2013-05-14 20:05:00,66.8,40.2,30.12,SSE,158,0.0,0.0,38,0.00,,,0.00,WUHU216HW,2013-05-15 00:05:00,
2013-05-14 20:30:00,64.4,40.1,30.12,South,180,0.0,0.0,41,0.00,,,0.00,WUHU216HW,2013-05-15 00:30:00,
2013-05-14 20:35:00,64.4,40.1,30.12,South,180,0.0,0.0,41,0.00,,,0.00,WUHU216HW,2013-05-15 00:35:00,
2013-05-14 20:59:00,63.0,40.1,30.11,SW,225,0.0,0.0,43,0.00,,,0.00,WUHU216HW,2013-05-15 00:59:00,
2013-05-14 21:00:00,63.0,40.1,30.11,SW,225,0.0,0.0,43,0.00,,,0.00,WUHU216HW,2013-05-15 01:00:00,
2013-05-14 21:05:00,63.0,40.1,30.11,SW,225,0.0,0.0,43,0.00,,,0.00,WUHU216HW,2013-05-15 01:05:00,
2013-05-14 21:30:00,62.3,40.5,30.11,SSW,203,1.8,1.8,45,0.00,,,0.00,WUHU216HW,2013-05-15 01:30:00,
2013-05-14 21:35:00,62.3,40.5,30.11,SSW,203,1.8,1.8,45,0.00,,,0.00,WUHU216HW,2013-05-15 01:35:00,
2013-05-14 21:59:00,61.6,39.9,30.12,SE,135,0.0,0.0,45,0.00,,,0.00,WUHU216HW,2013-05-15 01:59:00,
2013-05-14 22:00:00,61.6,39.9,30.12,SE,135,0.0,0.0,45,0.00,,,0.00,WUHU216HW,2013-05-15 02:00:00,
2013-05-14 22:05:00,61.6,39.9,30.12,SE,135,0.0,0.0,45,0.00,,,0.00,WUHU216HW,2013-05-15 02:05:00,
2013-05-14 22:30:00,60.8,39.8,30.12,SW,225,0.0,0.0,46,0.00,,,0.00,WUHU216HW,2013-05-15 02:30:00,
2013-05-14 22:35:00,60.8,39.8,30.12,SW,225,0.0,0.0,46,0.00,,,0.00,WUHU216HW,2013-05-15 02:35:00,
2013-05-14 22:59:00,60.3,39.9,30.11,East,90,0.8,0.8,47,0.00,,,0.00,WUHU216HW,2013-05-15 02:59:00,
2013-05-14 23:00:00,60.3,39.9,30.11,East,90,0.8,0.8,47,0.00,,,0.00,WUHU216HW,2013-05-15 03:00:00,
2013-05-14 23:05:00,60.3,39.9,30.11,East,90,0.8,0.8,47,0.00,,,0.00,WUHU216HW,2013-05-15 03:05:00,
2013-05-14 23:30:00,59.9,39.6,30.10,ESE,113,0.0,0.0,47,0.00,,,0.00,WUHU216HW,2013-05-15 03:30:00,
2013-05-14 23:35:00,59.9,39.6,30.10,ESE,113,0.0,0.0,47,0.00,,,0.00,WUHU216HW,2013-05-15 03:35:00,
2013-05-14 23:59:00,59.0,39.3,30.10,SE,135,0.4,0.4,48,0.00,,,0.00,WUHU216HW,2013-05-15 03:59:00,